Погода Нонг-Буа-Лампуна неделю

Дансай, Таиланд

29 февраля-06 марта
  • 29февраля
    Сегодня
    +21°
    +35°
    Небольшая облачность
    ВремяПогодаТемператураВлажностьДавлениеВетер, м/сВероятность осадков
    01:00Ясно и безоблачно+26°C68 %737 мм1.1 м/с2 %
    04:00Ясно и безоблачно+23°C78 %736 мм1.4 м/с2 %
    07:00Ясно и безоблачно+23°C79 %737 мм1.8 м/с4 %
    10:00Ясно и безоблачно+30°C58 %739 мм1.5 м/с5 %
    13:00Небольшая облачность+34°C49 %737 мм1.9 м/с18 %
    16:00Практически безоблачно+33°C54 %735 мм3.0 м/с26 %
    19:00Ясно и безоблачно+29°C71 %736 мм1.7 м/с4 %
    22:00Ясно и безоблачно+27°C75 %737 мм1.5 м/с2 %
  • 01марта
    Пятница
    +20°
    +34°
    Практически безоблачно
    ВремяПогодаТемператураВлажностьДавлениеВетер, м/сВероятность осадков
    01:00Небольшая облачность, ливень+25°C83 %738 мм2.1 м/с21 %
    04:00Небольшая облачность+23°C78 %737 мм2.1 м/с22 %
    07:00Небольшая облачность+22°C79 %739 мм1.8 м/с14 %
    10:00Небольшая облачность+28°C61 %741 мм2.2 м/с13 %
    13:00Практически безоблачно+32°C50 %739 мм1.7 м/с7 %
    16:00Небольшая облачность+33°C47 %737 мм1.2 м/с9 %
    19:00Ясно и безоблачно+30°C56 %737 мм2.6 м/с2 %
    22:00Ясно и безоблачно+27°C58 %739 мм3.0 м/с2 %
  • 02марта
    Суббота
    +19°
    +33°
    Ясно и безоблачно
    ВремяПогодаТемператураВлажностьДавлениеВетер, м/сВероятность осадков
    01:00Практически безоблачно+24°C59 %739 мм3.7 м/с2 %
    04:00Ясно и безоблачно+22°C68 %739 мм1.6 м/с2 %
    07:00Ясно и безоблачно+20°C71 %740 мм2.3 м/с2 %
    10:00Ясно и безоблачно+26°C57 %742 мм1.9 м/с2 %
    13:00Ясно и безоблачно+30°C48 %739 мм1.8 м/с2 %
    16:00Ясно и безоблачно+32°C46 %737 мм1.4 м/с3 %
    19:00Ясно и безоблачно+29°C56 %737 мм2.5 м/с2 %
    22:00Ясно и безоблачно+25°C67 %738 мм2.1 м/с2 %
  • 03марта
    Воскресенье
    +23°
    +34°
    Ясно и безоблачно
    ВремяПогодаТемператураВлажностьДавлениеВетер, м/сВероятность осадков
    01:00Ясно и безоблачно+24°C67 %738 мм2.0 м/с2 %
    04:00Ясно и безоблачно+22°C73 %738 мм1.7 м/с2 %
    07:00Ясно и безоблачно+20°C75 %739 мм2.5 м/с2 %
    10:00Ясно и безоблачно+27°C59 %741 мм1.5 м/с2 %
    13:00Ясно и безоблачно+32°C49 %738 мм1.2 м/с2 %
    16:00Ясно и безоблачно+33°C47 %735 мм1.8 м/с2 %
    19:00Практически безоблачно+29°C62 %735 мм1.9 м/с2 %
    22:00Ясно и безоблачно+26°C66 %736 мм1.9 м/с2 %
  • 04марта
    Понедельник
    +22°
    +38°
    Ясно и безоблачно
    ВремяПогодаТемператураВлажностьДавлениеВетер, м/сВероятность осадков
    01:00Ясно и безоблачно+25°C69 %736 мм2.1 м/с2 %
    04:00Ясно и безоблачно+25°C75 %735 мм2.0 м/с2 %
    07:00Ясно и безоблачно+24°C81 %736 мм2.2 м/с2 %
    10:00Ясно и безоблачно+31°C60 %738 мм1.9 м/с2 %
    13:00Ясно и безоблачно+36°C34 %735 мм1.4 м/с2 %
    16:00Ясно и безоблачно+37°C22 %733 мм2.8 м/с2 %
    19:00Ясно и безоблачно+31°C33 %733 мм3.6 м/с2 %
    22:00Ясно и безоблачно+27°C45 %735 мм2.9 м/с2 %
Мы используем cookies
Соглашаюсь